createdAt,value
2023-04-17T06:37:42.167Z,9.302739
2023-04-17T06:38:41.967Z,9.302304
2023-04-17T06:39:42.122Z,9.302457
2023-04-17T06:40:42.012Z,9.303000
2023-04-17T06:41:41.982Z,9.302864
2023-04-17T06:42:43.881Z,9.302909
2023-04-17T06:43:41.947Z,9.302925
2023-04-17T06:44:41.972Z,9.302897
2023-04-17T06:45:41.928Z,9.302992
2023-04-17T06:46:42.285Z,9.302866
2023-04-17T06:47:41.887Z,9.302928
2023-04-17T06:48:41.832Z,9.302947
2023-04-17T06:49:41.850Z,9.302901
2023-04-17T06:50:41.798Z,9.302974
2023-04-17T06:51:41.887Z,9.303038
2023-04-17T06:52:41.816Z,9.302981
2023-04-17T06:53:41.991Z,9.303010
2023-04-17T06:54:41.895Z,9.303002
2023-04-17T06:55:41.826Z,9.303186
2023-04-17T06:56:42.017Z,9.303110
2023-04-17T06:57:41.770Z,9.303068
2023-04-17T06:58:41.758Z,9.303081
2023-04-17T06:59:41.680Z,9.303032
2023-04-17T07:00:41.741Z,9.303027
2023-04-17T07:01:41.744Z,9.302976
2023-04-17T07:02:41.757Z,9.302999
2023-04-17T07:03:43.545Z,9.303150
2023-04-17T07:04:41.752Z,9.303155
2023-04-17T07:05:41.639Z,9.303100
2023-04-17T07:06:41.671Z,9.302977
2023-04-17T07:07:42.888Z,9.303091
2023-04-17T07:08:41.737Z,9.303089
2023-04-17T07:09:41.624Z,9.302984
2023-04-17T07:10:41.602Z,9.303076
2023-04-17T07:11:41.655Z,9.303294
2023-04-17T07:12:41.674Z,9.303010
2023-04-17T07:13:41.599Z,9.303022
2023-04-17T07:14:41.928Z,9.303059
2023-04-17T07:15:41.880Z,9.303072
2023-04-17T07:16:41.667Z,9.303153
2023-04-17T07:17:41.550Z,9.303106
2023-04-17T07:18:41.554Z,9.302992
2023-04-17T07:19:41.552Z,9.303020
2023-04-17T07:20:41.575Z,9.302933
2023-04-17T07:21:41.561Z,9.302849
2023-04-17T07:22:41.553Z,9.302882
2023-04-17T07:23:41.461Z,9.302878
2023-04-17T07:24:41.489Z,9.302876
2023-04-17T07:25:41.425Z,9.302743
2023-04-17T07:26:41.473Z,9.302742
2023-04-17T07:27:41.489Z,9.302825
2023-04-17T07:28:41.471Z,9.302737
2023-04-17T07:29:41.384Z,9.302923
2023-04-17T07:30:41.478Z,9.302971
2023-04-17T07:31:41.439Z,9.302876
2023-04-17T07:32:42.476Z,9.302785
2023-04-17T07:33:42.436Z,9.302864
2023-04-17T07:34:41.361Z,9.302898
2023-04-17T07:35:41.439Z,9.302919
2023-04-17T07:36:41.457Z,9.302844
2023-04-17T07:37:41.324Z,9.302939
2023-04-17T07:38:41.540Z,9.302902
2023-04-17T07:39:43.494Z,9.302778
2023-04-17T07:40:41.294Z,9.302853
2023-04-17T07:41:41.386Z,9.302917
2023-04-17T07:42:41.455Z,9.302864
2023-04-17T07:43:41.309Z,9.302836
2023-04-17T07:44:41.220Z,9.302814
2023-04-17T07:45:42.064Z,9.303050
2023-04-17T07:46:42.343Z,9.303080
2023-04-17T07:47:41.325Z,9.302997
2023-04-17T07:48:41.290Z,9.302986
2023-04-17T07:49:44.435Z,9.303182
2023-04-17T07:50:43.148Z,9.303035
2023-04-17T07:51:41.311Z,9.303011
2023-04-17T07:52:41.194Z,9.303042
2023-04-17T07:53:41.210Z,9.303027
2023-04-17T07:54:41.215Z,9.303026
2023-04-17T07:55:41.130Z,9.303004
2023-04-17T07:56:41.184Z,9.303001
2023-04-17T07:57:44.485Z,9.303032
2023-04-17T07:58:42.143Z,9.302991
2023-04-17T07:59:41.089Z,9.302979
2023-04-17T08:00:41.137Z,9.302970
2023-04-17T08:01:41.199Z,9.302937
2023-04-17T08:02:41.113Z,9.303044
2023-04-17T08:05:06.456Z,9.303025
2023-04-17T08:05:08.428Z,9.303025
2023-04-17T08:06:08.383Z,9.303076
2023-04-17T08:07:08.222Z,9.302993
2023-04-17T08:08:08.155Z,9.302966
2023-04-17T08:09:08.177Z,9.302929
2023-04-17T08:10:08.078Z,9.302913
2023-04-17T08:11:08.185Z,9.302962
2023-04-17T08:12:08.174Z,9.303050
2023-04-17T08:13:08.099Z,9.302982
2023-04-17T08:14:08.160Z,9.302865
2023-04-17T08:15:08.101Z,9.303105
2023-04-17T08:16:08.088Z,9.303131
2023-04-17T08:17:08.088Z,9.303008
2023-04-17T08:18:08.102Z,9.303020
2023-04-17T08:19:08.047Z,9.302762
2023-04-17T08:20:08.083Z,9.302737
2023-04-17T08:21:08.116Z,9.302687
2023-04-17T08:22:08.134Z,9.302815
2023-04-17T08:23:07.985Z,9.302802
2023-04-17T08:24:08.045Z,9.302890
2023-04-17T08:25:08.011Z,9.302917
2023-04-17T08:26:08.029Z,9.302859
2023-04-17T08:27:08.787Z,9.302750
2023-04-17T08:28:07.918Z,9.302819
2023-04-17T08:29:07.978Z,9.302822
2023-04-17T08:30:10.020Z,9.302843
2023-04-17T08:31:08.057Z,9.302991
2023-04-17T08:32:14.696Z,9.302938
2023-04-17T08:33:10.009Z,9.302984
2023-04-17T08:34:14.480Z,9.302987
2023-04-17T08:35:09.941Z,9.302981
2023-04-17T08:36:08.738Z,9.302958
2023-04-17T08:37:08.819Z,9.302946
2023-04-17T08:38:07.841Z,9.302928
2023-04-17T08:39:07.805Z,9.302938
2023-04-17T08:40:07.843Z,9.302896
2023-04-17T08:41:08.353Z,9.302950
2023-04-17T08:42:07.807Z,9.302924
2023-04-17T08:43:07.986Z,9.302942
2023-04-17T08:44:07.776Z,9.302949
2023-04-17T08:45:07.767Z,9.303058
2023-04-17T08:46:07.946Z,9.303021
2023-04-17T08:47:07.784Z,9.302932
2023-04-17T08:48:07.812Z,9.302948
2023-04-17T08:49:40.150Z,9.302992
2023-04-17T08:50:07.826Z,9.302919
2023-04-17T08:51:07.777Z,9.302975
2023-04-17T08:52:07.662Z,9.302958
2023-04-17T08:53:07.802Z,9.302979
2023-04-17T08:54:07.703Z,9.302959
2023-04-17T08:55:07.677Z,9.302966
2023-04-17T08:56:09.103Z,9.302938
2023-04-17T08:57:08.648Z,9.302955
2023-04-17T08:58:07.702Z,9.302909
2023-04-17T08:59:07.765Z,9.302876
2023-04-17T09:00:07.688Z,9.302817
2023-04-17T09:01:07.723Z,9.302795
2023-04-17T09:02:08.150Z,9.302830
2023-04-17T09:03:08.102Z,9.302932
2023-04-17T09:04:07.828Z,9.302915
2023-04-17T09:05:07.694Z,9.302879
2023-04-17T09:06:07.719Z,9.302869
2023-04-17T09:07:07.684Z,9.302871
2023-04-17T09:08:07.566Z,9.302942
2023-04-17T09:09:07.587Z,9.302888
2023-04-17T09:10:07.511Z,9.302917
2023-04-17T09:11:07.612Z,9.302846
2023-04-17T09:12:07.538Z,9.302794
2023-04-17T09:13:07.599Z,9.302905
2023-04-17T09:14:07.489Z,9.302856
2023-04-17T09:15:07.534Z,9.302842
2023-04-17T09:16:07.503Z,9.302890
2023-04-17T09:17:07.469Z,9.302919
2023-04-17T09:18:07.511Z,9.302954
2023-04-17T09:19:07.416Z,9.302884
2023-04-17T09:20:07.793Z,9.302837
2023-04-17T09:21:07.399Z,9.302899
2023-04-17T09:22:07.474Z,9.302799
2023-04-17T09:23:07.443Z,9.302857
2023-04-17T09:24:07.448Z,9.302865
2023-04-17T09:25:07.430Z,9.302794
2023-04-17T09:26:07.378Z,9.302904
2023-04-17T09:27:07.448Z,9.302926
2023-04-17T09:28:07.453Z,9.302860
2023-04-17T09:29:07.372Z,9.302882
2023-04-17T09:30:07.407Z,9.303000
2023-04-17T09:31:07.409Z,9.302933
2023-04-17T09:32:07.324Z,9.302892
2023-04-17T09:33:07.340Z,9.302847
2023-04-17T09:34:07.326Z,9.302939
2023-04-17T09:35:07.298Z,9.302905
2023-04-17T09:36:07.411Z,9.302839
2023-04-17T09:37:07.297Z,9.302842
2023-04-17T09:38:07.319Z,9.302854
2023-04-17T09:39:07.230Z,9.302727
2023-04-17T09:40:07.223Z,9.302733
2023-04-17T09:41:07.333Z,9.302970
2023-04-17T09:42:07.172Z,9.302978
2023-04-17T09:43:09.436Z,9.303051
2023-04-17T09:44:07.255Z,9.302918
2023-04-17T09:45:07.182Z,9.302869
2023-04-17T09:46:07.247Z,9.302884
2023-04-17T09:47:07.230Z,9.302960
2023-04-17T09:48:07.222Z,9.302940
2023-04-17T09:49:07.148Z,9.302957
2023-04-17T09:50:07.117Z,9.302870
2023-04-17T09:51:07.146Z,9.302892
2023-04-17T09:52:07.247Z,9.303110
2023-04-17T09:53:07.152Z,9.303116
2023-04-17T09:54:07.160Z,9.303068
2023-04-17T09:55:07.165Z,9.302955
2023-04-17T09:56:07.148Z,9.302819
2023-04-17T09:57:07.073Z,9.302791
2023-04-17T09:58:07.551Z,9.302839
2023-04-17T09:59:07.059Z,9.302884
2023-04-17T10:00:07.012Z,9.302865
2023-04-17T10:01:07.075Z,9.302905
2023-04-17T10:02:07.127Z,9.302958
2023-04-17T10:03:07.373Z,9.302978
2023-04-17T10:04:07.226Z,9.302905
2023-04-17T10:05:07.072Z,9.302901
2023-04-17T10:06:06.965Z,9.302914
2023-04-17T10:07:06.982Z,9.302945
2023-04-17T10:08:07.065Z,9.302973
2023-04-17T10:09:06.982Z,9.303102
2023-04-17T10:10:06.989Z,9.302918
2023-04-17T10:11:06.968Z,9.302892
2023-04-17T10:12:06.975Z,9.302940
2023-04-17T10:13:06.977Z,9.302835
2023-04-17T10:14:06.932Z,9.302954
2023-04-17T10:15:06.878Z,9.302891
2023-04-17T10:16:07.049Z,9.302940
2023-04-17T10:17:06.851Z,9.302893
2023-04-17T10:18:06.908Z,9.302898
2023-04-17T10:19:06.844Z,9.302919
2023-04-17T10:20:06.940Z,9.302903
2023-04-17T10:21:06.809Z,9.302876
2023-04-17T10:22:06.882Z,9.302913
2023-04-17T10:23:06.851Z,9.302955
2023-04-17T10:24:06.790Z,9.302907
2023-04-17T10:25:06.795Z,9.302886
2023-04-17T10:26:07.011Z,9.302892
2023-04-17T10:27:08.183Z,9.302962
2023-04-17T10:28:07.834Z,9.302967
2023-04-17T10:29:06.725Z,9.302906
2023-04-17T10:30:06.797Z,9.302916
2023-04-17T10:31:06.816Z,9.302832
2023-04-17T10:32:06.851Z,9.302820
2023-04-17T10:33:08.344Z,9.302885
2023-04-17T10:34:07.337Z,9.302931
2023-04-17T10:35:06.780Z,9.302963
2023-04-17T10:36:06.734Z,9.302962
2023-04-17T10:37:07.015Z,9.302958
2023-04-17T10:38:06.775Z,9.302924
2023-04-17T10:39:06.654Z,9.302906
2023-04-17T10:40:06.698Z,9.302926
2023-04-17T10:41:06.677Z,9.302893
2023-04-17T10:42:06.633Z,9.303011
2023-04-17T10:43:06.650Z,9.302901
2023-04-17T10:44:06.615Z,9.302992
2023-04-17T10:45:06.579Z,9.302935
2023-04-17T10:46:06.678Z,9.302843
2023-04-17T10:47:06.673Z,9.302957
2023-04-17T10:48:06.726Z,9.303038
2023-04-17T10:49:06.578Z,9.302962
2023-04-17T10:50:06.598Z,9.302953
2023-04-17T10:51:06.561Z,9.302985
2023-04-17T10:52:06.813Z,9.303015
2023-04-17T10:53:06.561Z,9.302996
2023-04-17T10:54:06.541Z,9.302984
2023-04-17T10:55:06.695Z,9.302916
2023-04-17T10:56:06.467Z,9.302987
2023-04-17T10:57:06.481Z,9.303013
2023-04-17T10:58:06.849Z,9.302985
2023-04-17T10:59:06.689Z,9.303017
2023-04-17T11:00:06.480Z,9.303002
2023-04-17T11:01:06.521Z,9.303001
2023-04-17T11:02:06.471Z,9.302868
2023-04-17T11:03:06.576Z,9.302905
2023-04-17T11:04:06.918Z,9.302872
2023-04-17T11:05:06.469Z,9.302879
2023-04-17T11:06:06.509Z,9.302897
2023-04-17T11:07:06.417Z,9.302917
2023-04-17T11:08:06.986Z,9.303036
2023-04-17T11:09:06.381Z,9.302975
2023-04-17T11:10:06.342Z,9.302884
2023-04-17T11:11:06.517Z,9.302842
2023-04-17T11:12:06.627Z,9.302860
2023-04-17T11:13:06.448Z,9.302896
2023-04-17T11:14:06.405Z,9.303011
2023-04-17T11:15:06.500Z,9.302927
2023-04-17T11:16:06.272Z,9.302992
2023-04-17T11:17:06.330Z,9.303010
2023-04-17T11:18:06.421Z,9.302999
2023-04-17T11:19:06.268Z,9.302950
2023-04-17T11:20:06.251Z,9.302968
2023-04-17T11:21:06.391Z,9.303040
2023-04-17T11:22:06.942Z,9.303106
2023-04-17T11:23:07.011Z,9.302973
2023-04-17T11:24:06.214Z,9.303163
2023-04-17T11:25:06.295Z,9.303043
2023-04-17T11:26:06.575Z,9.303046
2023-04-17T11:27:06.186Z,9.302978
2023-04-17T11:28:06.244Z,9.302940
2023-04-17T11:29:06.255Z,9.302963
2023-04-17T11:30:06.153Z,9.302907
2023-04-17T11:31:06.368Z,9.302951
2023-04-17T11:32:06.111Z,9.302884
2023-04-17T11:33:06.379Z,9.302882
2023-04-17T11:34:06.520Z,9.302946
2023-04-17T11:35:06.107Z,9.303076
2023-04-17T11:36:06.450Z,9.303039
2023-04-17T11:37:06.108Z,9.303103
2023-04-17T11:38:06.162Z,9.303076
2023-04-17T11:39:06.722Z,9.303065
2023-04-17T11:40:06.915Z,9.302950
2023-04-17T11:41:06.065Z,9.302896
2023-04-17T11:42:06.055Z,9.303068
2023-04-17T11:43:06.093Z,9.302958
2023-04-17T11:44:06.038Z,9.303032
2023-04-17T11:45:06.334Z,9.303053
2023-04-17T11:46:05.994Z,9.303003
2023-04-17T11:47:06.721Z,9.302958
2023-04-17T11:48:06.053Z,9.302969
2023-04-17T11:49:06.031Z,9.302801
2023-04-17T11:50:06.080Z,9.302816
2023-04-17T11:51:06.092Z,9.302973
2023-04-17T11:52:06.579Z,9.302888
2023-04-17T11:53:06.080Z,9.302918
2023-04-17T11:54:06.676Z,9.302932
2023-04-17T11:55:05.899Z,9.302917
2023-04-17T11:56:06.028Z,9.302953
2023-04-17T11:57:05.944Z,9.302956
2023-04-17T11:58:06.078Z,9.302895
2023-04-17T11:59:05.986Z,9.302967
2023-04-17T12:00:05.924Z,9.303025
2023-04-17T12:01:06.163Z,9.303056
2023-04-17T12:02:05.841Z,9.302912
2023-04-17T12:03:06.012Z,9.302893
2023-04-17T12:04:06.273Z,9.302924
2023-04-17T12:05:05.990Z,9.302836
2023-04-17T12:06:06.639Z,9.303013
2023-04-17T12:07:05.944Z,9.303004
2023-04-17T12:08:05.901Z,9.302991
2023-04-17T12:09:05.884Z,9.302863
2023-04-17T12:10:05.824Z,9.302924
2023-04-17T12:11:06.513Z,9.302976
2023-04-17T12:12:05.741Z,9.302940
2023-04-17T12:13:07.681Z,9.302890
2023-04-17T12:14:05.957Z,9.302845
2023-04-17T12:15:05.695Z,9.302865
2023-04-17T12:16:05.829Z,9.302728
2023-04-17T12:17:05.778Z,9.302892
2023-04-17T12:18:05.756Z,9.302824
2023-04-17T12:19:06.544Z,9.302916
2023-04-17T12:20:06.547Z,9.303096
2023-04-17T12:21:06.015Z,9.303041
2023-04-17T12:22:05.784Z,9.302986
2023-04-17T12:23:05.872Z,9.302966
2023-04-17T12:24:05.708Z,9.302809
2023-04-17T12:25:05.702Z,9.302795
2023-04-17T12:26:05.716Z,9.302700
2023-04-17T12:27:05.622Z,9.302656
2023-04-17T12:28:05.876Z,9.302790
2023-04-17T12:29:05.817Z,9.302856
2023-04-17T12:30:08.572Z,9.302924
2023-04-17T12:31:05.535Z,9.302912
2023-04-17T12:32:05.723Z,9.302925
2023-04-17T12:33:06.058Z,9.303002
2023-04-17T12:34:05.561Z,9.302979
2023-04-17T12:35:05.909Z,9.302970
2023-04-17T12:36:05.646Z,9.302919
2023-04-17T12:37:05.713Z,9.303014
2023-04-17T12:38:05.519Z,9.302982
2023-04-17T12:39:05.482Z,9.302944
2023-04-17T12:40:05.798Z,9.302895
2023-04-17T12:41:05.551Z,9.303182
2023-04-17T12:42:05.696Z,9.303082
2023-04-17T12:43:05.734Z,9.303017
2023-04-17T12:44:06.575Z,9.302984
2023-04-17T12:45:05.403Z,9.302929
2023-04-17T12:46:05.483Z,9.302971
2023-04-17T12:47:05.581Z,9.302950
2023-04-17T12:48:05.465Z,9.302973
2023-04-17T12:49:05.400Z,9.303003
2023-04-17T12:50:05.359Z,9.302932
2023-04-17T12:51:05.331Z,9.302890
2023-04-17T12:52:05.630Z,9.302861
2023-04-17T12:53:05.398Z,9.302829
2023-04-17T12:54:06.999Z,9.302844
2023-04-17T12:55:05.357Z,9.302936
2023-04-17T12:56:05.524Z,9.302939
2023-04-17T12:57:05.367Z,9.302950
2023-04-17T12:58:05.293Z,9.302882
2023-04-17T12:59:05.335Z,9.302626
2023-04-17T13:00:05.471Z,9.302704
2023-04-17T13:01:05.563Z,9.302903
2023-04-17T13:02:05.280Z,9.302865
2023-04-17T13:03:05.567Z,9.302828
2023-04-17T13:04:05.435Z,9.302948
2023-04-17T13:05:05.414Z,9.302958
2023-04-17T13:06:06.151Z,9.303020
2023-04-17T13:07:05.261Z,9.302941
2023-04-17T13:08:05.406Z,9.302955
2023-04-17T13:09:05.281Z,9.303008
2023-04-17T13:10:05.167Z,9.302928
2023-04-17T13:11:05.716Z,9.302999
2023-04-17T13:12:05.460Z,9.302896
2023-04-17T13:13:05.484Z,9.302972
2023-04-17T13:14:05.126Z,9.302991
2023-04-17T13:15:05.190Z,9.303060
2023-04-17T13:16:05.063Z,9.303143
2023-04-17T13:17:05.180Z,9.303043
2023-04-17T13:18:05.172Z,9.302966
2023-04-17T13:19:05.324Z,9.302944
2023-04-17T13:20:05.121Z,9.302964
2023-04-17T13:21:05.044Z,9.303004
2023-04-17T13:22:05.060Z,9.302971
2023-04-17T13:23:05.061Z,9.302956
2023-04-17T13:24:05.122Z,9.303097
2023-04-17T13:25:05.023Z,9.303050
2023-04-17T13:26:04.980Z,9.302971
2023-04-17T13:27:04.938Z,9.303004
2023-04-17T13:28:04.964Z,9.303040
2023-04-17T13:29:05.097Z,9.303097
2023-04-17T13:30:05.208Z,9.303042
2023-04-17T13:31:04.952Z,9.303064
2023-04-17T13:32:04.992Z,9.303153
2023-04-17T13:33:05.201Z,9.303064
2023-04-17T13:34:05.643Z,9.303025
2023-04-17T13:35:05.859Z,9.303009
2023-04-17T13:36:05.224Z,9.303125
2023-04-17T13:37:04.850Z,9.303062
2023-04-17T13:38:04.961Z,9.303085
2023-04-17T13:39:04.867Z,9.303012
2023-04-17T13:40:05.157Z,9.303044
2023-04-17T13:41:05.049Z,9.303108
2023-04-17T13:42:04.877Z,9.303032
2023-04-17T13:43:04.901Z,9.302995
2023-04-17T13:44:04.869Z,9.303104
2023-04-17T13:45:04.800Z,9.303164
2023-04-17T13:46:05.583Z,9.303009
2023-04-17T13:47:04.798Z,9.302960
2023-04-17T13:48:04.798Z,9.302854
2023-04-17T13:49:04.935Z,9.302981
2023-04-17T13:50:04.719Z,9.303087
2023-04-17T13:51:04.856Z,9.303045
2023-04-17T13:52:04.679Z,9.303029
2023-04-17T13:53:04.950Z,9.303021
2023-04-17T13:54:04.692Z,9.303028
2023-04-17T13:55:04.653Z,9.302987
2023-04-17T13:56:04.918Z,9.303055
2023-04-17T13:57:04.637Z,9.303034
2023-04-17T13:58:04.744Z,9.303047
2023-04-17T13:59:04.846Z,9.303085
2023-04-17T14:00:04.746Z,9.303065
2023-04-17T14:01:04.708Z,9.303065
2023-04-17T14:02:04.881Z,9.303061
2023-04-17T14:03:04.953Z,9.303074
2023-04-17T14:04:05.139Z,9.303107
2023-04-17T14:05:12.033Z,9.303128
2023-04-17T14:06:05.571Z,9.303069
2023-04-17T14:07:04.752Z,9.303033
2023-04-17T14:08:04.602Z,9.303100
2023-04-17T14:09:04.947Z,9.303119
2023-04-17T14:10:04.753Z,9.303061
2023-04-17T14:11:04.491Z,9.303005
2023-04-17T14:12:04.487Z,9.303001
2023-04-17T14:13:04.730Z,9.303020
2023-04-17T14:14:04.600Z,9.303172
2023-04-17T14:15:04.478Z,9.303140
2023-04-17T14:16:04.703Z,9.303001
2023-04-17T14:17:04.590Z,9.303070
2023-04-17T14:18:05.002Z,9.303088
2023-04-17T14:19:13.320Z,9.303092
2023-04-17T14:20:07.373Z,9.303146
2023-04-17T14:21:05.128Z,9.303024
2023-04-17T14:22:04.674Z,9.303044
2023-04-17T14:23:05.736Z,9.303166
2023-04-17T14:24:04.948Z,9.303079
2023-04-17T14:25:04.403Z,9.303085
2023-04-17T14:26:04.447Z,9.303046
2023-04-17T14:27:04.346Z,9.303102
2023-04-17T14:28:04.347Z,9.303057
2023-04-17T14:29:04.931Z,9.303061
2023-04-17T14:30:04.475Z,9.303072
2023-04-17T14:31:05.846Z,9.303079
2023-04-17T14:32:04.337Z,9.303018
2023-04-17T14:33:04.529Z,9.303158
2023-04-17T14:34:04.518Z,9.303125
2023-04-17T14:35:05.549Z,9.303168
2023-04-17T14:36:05.902Z,9.303181
2023-04-17T14:37:05.608Z,9.303180
2023-04-17T14:38:04.540Z,9.303024
2023-04-17T14:39:04.375Z,9.303026
2023-04-17T14:40:04.244Z,9.303000
2023-04-17T14:41:04.349Z,9.303012
2023-04-17T14:42:04.835Z,9.303107
2023-04-17T14:43:04.198Z,9.303124
2023-04-17T14:44:04.208Z,9.303062
2023-04-17T14:45:05.069Z,9.303019
2023-04-17T14:46:04.902Z,9.302982
2023-04-17T14:47:04.317Z,9.302980
2023-04-17T14:48:04.388Z,9.303089
2023-04-17T14:49:04.569Z,9.303123
2023-04-17T14:50:04.104Z,9.303059
2023-04-17T14:51:04.140Z,9.303054
2023-04-17T14:52:04.616Z,9.303014
2023-04-17T14:53:05.038Z,9.303108
2023-04-17T14:54:04.135Z,9.303082
2023-04-17T14:55:04.209Z,9.302954
2023-04-17T14:56:04.314Z,9.303007
2023-04-17T14:57:04.232Z,9.302998
2023-04-17T14:58:09.102Z,9.302933
2023-04-17T14:59:05.106Z,9.303013
2023-04-17T15:00:04.122Z,9.303011
2023-04-17T15:01:04.154Z,9.303146
2023-04-17T15:02:04.233Z,9.303008
2023-04-17T15:03:05.048Z,9.303136
2023-04-17T15:04:05.381Z,9.303184
2023-04-17T15:05:04.374Z,9.303031
2023-04-17T15:06:04.144Z,9.303055
2023-04-17T15:07:04.138Z,9.303081
2023-04-17T15:08:04.312Z,9.303077
2023-04-17T15:09:04.072Z,9.303185
2023-04-17T15:10:03.914Z,9.303046
2023-04-17T15:11:04.169Z,9.303075
2023-04-17T15:12:05.506Z,9.303084
2023-04-17T15:13:04.053Z,9.303062
2023-04-17T15:14:03.903Z,9.303082
2023-04-17T15:15:04.248Z,9.303056
2023-04-17T15:16:03.923Z,9.303041
2023-04-17T15:17:05.408Z,9.303056
2023-04-17T15:18:05.871Z,9.303084
2023-04-17T15:19:03.857Z,9.303059
2023-04-17T15:20:03.832Z,9.303102
2023-04-17T15:21:03.843Z,9.303084
2023-04-17T15:22:04.195Z,9.303111
2023-04-17T15:23:06.883Z,9.303079
2023-04-17T15:24:06.687Z,9.303068
2023-04-17T15:25:03.793Z,9.303099
2023-04-17T15:26:03.790Z,9.303008
2023-04-17T15:27:03.740Z,9.303034
2023-04-17T15:28:03.745Z,9.303092
2023-04-17T15:29:03.783Z,9.303046
2023-04-17T15:30:04.218Z,9.303018
2023-04-17T15:31:03.728Z,9.302981
2023-04-17T15:32:03.717Z,9.303061
2023-04-17T15:33:03.799Z,9.303061
2023-04-17T15:34:05.199Z,9.302978
2023-04-17T15:35:03.660Z,9.303039
2023-04-17T15:36:03.784Z,9.302999
2023-04-17T15:37:03.796Z,9.302978
2023-04-17T15:38:03.825Z,9.303006
2023-04-17T15:39:03.651Z,9.303061
2023-04-17T15:40:03.765Z,9.303054
2023-04-17T15:41:04.245Z,9.303029
2023-04-17T15:42:03.590Z,9.303030
2023-04-17T15:43:03.779Z,9.303061
2023-04-17T15:44:03.981Z,9.303023
2023-04-17T15:45:03.776Z,9.303045
2023-04-17T15:46:03.968Z,9.303050
2023-04-17T15:47:03.897Z,9.303040
2023-04-17T15:48:04.421Z,9.303040
2023-04-17T15:49:09.248Z,9.303014
2023-04-17T15:50:03.850Z,9.303049
2023-04-17T15:51:03.518Z,9.303012
2023-04-17T15:52:03.789Z,9.302994
2023-04-17T15:53:03.510Z,9.303015
2023-04-17T15:54:03.541Z,9.303065
2023-04-17T15:55:03.568Z,9.303068
2023-04-17T15:56:04.897Z,9.303052
2023-04-17T15:57:03.730Z,9.303071
2023-04-17T15:58:05.854Z,9.303045
2023-04-17T15:59:03.544Z,9.303089
2023-04-17T16:00:03.911Z,9.302946
2023-04-17T16:01:03.457Z,9.302962
2023-04-17T16:02:03.914Z,9.303031
2023-04-17T16:03:03.603Z,9.303094
2023-04-17T16:04:04.001Z,9.303044
2023-04-17T16:05:03.405Z,9.303082
2023-04-17T16:06:03.492Z,9.302988
2023-04-17T16:07:03.454Z,9.302938
2023-04-17T16:08:03.317Z,9.303020
2023-04-17T16:09:03.611Z,9.302977
2023-04-17T16:10:03.560Z,9.302951
2023-04-17T16:11:03.461Z,9.302944
2023-04-17T16:12:03.344Z,9.302911
2023-04-17T16:13:03.309Z,9.302851
2023-04-17T16:14:03.314Z,9.302973
2023-04-17T16:15:03.541Z,9.302969
2023-04-17T16:16:03.257Z,9.302987
2023-04-17T16:17:03.300Z,9.302979
2023-04-17T16:18:03.774Z,9.303052
2023-04-17T16:19:03.453Z,9.302921
2023-04-17T16:20:03.197Z,9.302807
2023-04-17T16:21:03.376Z,9.302841
2023-04-17T16:22:03.420Z,9.302768
2023-04-17T16:23:04.848Z,9.302890
2023-04-17T16:24:03.643Z,9.302908
2023-04-17T16:25:03.736Z,9.302882
2023-04-17T16:26:03.175Z,9.302984
2023-04-17T16:27:04.698Z,9.302974
2023-04-17T16:28:03.261Z,9.302983
2023-04-17T16:29:03.129Z,9.302988
2023-04-17T16:30:03.228Z,9.303008
2023-04-17T16:31:03.171Z,9.302984
2023-04-17T16:32:04.567Z,9.302965
2023-04-17T16:33:03.411Z,9.303020
2023-04-17T16:34:03.681Z,9.303006
2023-04-17T16:35:03.117Z,9.303044
2023-04-17T16:36:03.064Z,9.303039
2023-04-17T16:37:04.847Z,9.303020
2023-04-17T16:38:03.230Z,9.303008
2023-04-17T16:39:03.044Z,9.303048
2023-04-17T16:40:03.103Z,9.302981
2023-04-17T16:41:04.605Z,9.302988
2023-04-17T16:42:03.253Z,9.302941
2023-04-17T16:43:03.145Z,9.303005
2023-04-17T16:44:02.947Z,9.302988
2023-04-17T16:45:04.012Z,9.302972
2023-04-17T16:46:10.933Z,9.303036
2023-04-17T16:47:13.516Z,9.303092
2023-04-17T16:48:05.127Z,9.303008
2023-04-17T16:49:02.946Z,9.303026
2023-04-17T16:50:03.045Z,9.303046
2023-04-17T16:51:03.135Z,9.303000
2023-04-17T16:52:02.932Z,9.303034
2023-04-17T16:53:03.150Z,9.303012
2023-04-17T16:54:06.947Z,9.302992
2023-04-17T16:55:03.758Z,9.302939
2023-04-17T16:56:04.977Z,9.302987
2023-04-17T16:57:03.137Z,9.303026
2023-04-17T16:58:04.347Z,9.302985
2023-04-17T16:59:05.338Z,9.303018
2023-04-17T17:00:03.012Z,9.302954
2023-04-17T17:01:03.405Z,9.303005
2023-04-17T17:02:03.324Z,9.302903
2023-04-17T17:03:04.198Z,9.302934
2023-04-17T17:04:07.784Z,9.302938
2023-04-17T17:05:03.170Z,9.302969
2023-04-17T17:06:04.519Z,9.303021
2023-04-17T17:07:03.964Z,9.303011
2023-04-17T17:08:02.819Z,9.303053
2023-04-17T17:09:03.532Z,9.303016
2023-04-17T17:10:05.992Z,9.302963
2023-04-17T17:11:06.228Z,9.302984
2023-04-17T17:12:03.111Z,9.302963
2023-04-17T17:13:03.143Z,9.303020
2023-04-17T17:14:07.503Z,9.302957
2023-04-17T17:15:10.362Z,9.302903
2023-04-17T17:16:07.474Z,9.302913
2023-04-17T17:17:05.069Z,9.302974
2023-04-17T17:18:03.895Z,9.302909
2023-04-17T17:19:03.044Z,9.302990
2023-04-17T17:20:05.574Z,9.303011
2023-04-17T17:21:03.173Z,9.302998
2023-04-17T17:22:02.678Z,9.303017
2023-04-17T17:23:04.892Z,9.303027
2023-04-17T17:24:05.493Z,9.302954
2023-04-17T17:25:02.747Z,9.302955
2023-04-17T17:26:02.815Z,9.302955
2023-04-17T17:27:03.366Z,9.302976
2023-04-17T17:28:02.870Z,9.303070
2023-04-17T17:29:06.845Z,9.303018
2023-04-17T17:30:03.111Z,9.303019
2023-04-17T17:31:04.169Z,9.303093
2023-04-17T17:32:03.305Z,9.303083
2023-04-17T17:33:02.732Z,9.303106
2023-04-17T17:34:16.561Z,9.303110
2023-04-17T17:35:04.851Z,9.303086
2023-04-17T17:36:02.624Z,9.303067
2023-04-17T17:37:02.593Z,9.303007
2023-04-17T17:38:03.183Z,9.302974
2023-04-17T17:39:05.409Z,9.303008
2023-04-17T17:40:02.462Z,9.302908
2023-04-17T17:41:05.448Z,9.302947
2023-04-17T17:42:04.399Z,9.302993
2023-04-17T17:43:02.843Z,9.302982
2023-04-17T17:44:04.239Z,9.303041
2023-04-17T17:45:10.777Z,9.302997
2023-04-17T17:46:02.431Z,9.303091
2023-04-17T17:47:05.841Z,9.303099
2023-04-17T17:48:05.333Z,9.302955
2023-04-17T17:49:02.578Z,9.302970
2023-04-17T17:50:04.193Z,9.303031
2023-04-17T17:51:03.412Z,9.302949
2023-04-17T17:52:02.750Z,9.302894
2023-04-17T17:53:03.184Z,9.303007
2023-04-17T17:54:03.518Z,9.302943
2023-04-17T17:55:02.742Z,9.303014
2023-04-17T17:56:05.742Z,9.303000
2023-04-17T17:57:03.034Z,9.303106
2023-04-17T17:58:02.347Z,9.303065
2023-04-17T17:59:03.227Z,9.303039
2023-04-17T18:00:03.057Z,9.303044
2023-04-17T18:01:02.446Z,9.303054
2023-04-17T18:02:02.639Z,9.303077
2023-04-17T18:03:02.486Z,9.303047
2023-04-17T18:04:02.552Z,9.303110
2023-04-17T18:05:02.702Z,9.303029
2023-04-17T18:06:02.195Z,9.303089
2023-04-17T18:07:02.465Z,9.303020
2023-04-17T18:08:02.242Z,9.303032
2023-04-17T18:09:02.422Z,9.303083
2023-04-17T18:10:02.240Z,9.302993
2023-04-17T18:11:02.304Z,9.303047
2023-04-17T18:12:02.412Z,9.303070
2023-04-17T18:13:02.241Z,9.303143
2023-04-17T18:14:02.153Z,9.303135
2023-04-17T18:15:02.676Z,9.303053
2023-04-17T18:16:03.255Z,9.302903
2023-04-17T18:17:02.491Z,9.303048
2023-04-17T18:32:19.908Z,9.303072
2023-04-17T18:33:19.836Z,9.303079
2023-04-17T18:34:19.825Z,9.303088
2023-04-17T18:35:19.893Z,9.303121
2023-04-17T18:36:19.910Z,9.303370